Time;durP1;ratioP1;P1;durP2;ratioP2;P2;SDS_P1;SDS_P2;PMS_P1;PMS_P2;Temp;Humidity;BMP_temperature;BMP_pressure;BME280_temperature;BME280_humidity;BME280_pressure;Samples;Min_cycle;Max_cycle;Signal;HPM_P1;HPM_P2
2023/06/25 00:00:10;;;;;;;0.03;0.03;;;;;;;16.95;70.79;98099.69;4905995;29;20064;-74
2023/06/25 00:02:47;;;;;;;0.10;0.10;;;;;;;16.89;71.31;98101.41;4880406;29;20049;-73
2023/06/25 00:05:15;;;;;;;0.05;0.05;;;;;;;16.93;70.76;98108.00;4909730;29;20472;-73
2023/06/25 00:07:42;;;;;;;0.13;0.13;;;;;;;16.85;71.71;98102.91;4896269;29;20051;-73
2023/06/25 00:10:10;;;;;;;0.13;0.13;;;;;;;16.91;71.39;98101.19;4902768;29;20053;-73
2023/06/25 00:12:38;;;;;;;0.10;0.10;;;;;;;16.80;72.17;98102.75;4897016;29;20132;-73
2023/06/25 00:15:09;;;;;;;0.10;0.10;;;;;;;16.71;72.60;98112.19;4894638;29;20097;-74
2023/06/25 00:17:38;;;;;;;0.30;0.30;;;;;;;16.66;73.01;98103.91;4904546;29;20059;-74
2023/06/25 00:20:08;;;;;;;0.13;0.13;;;;;;;16.58;73.05;98110.38;4897107;29;20056;-73
2023/06/25 00:22:36;;;;;;;0.20;0.20;;;;;;;16.70;71.99;98103.25;4896362;29;20055;-73
2023/06/25 00:25:04;;;;;;;0.20;0.20;;;;;;;16.53;72.91;98104.81;4888474;29;20512;-73
2023/06/25 00:27:31;;;;;;;0.10;0.10;;;;;;;16.40;73.26;98105.72;4909661;29;20050;-73
2023/06/25 00:30:00;;;;;;;0.10;0.10;;;;;;;16.38;73.38;98104.31;4914796;29;20044;-73
2023/06/25 00:32:29;;;;;;;0.20;0.20;;;;;;;16.36;73.41;98103.72;4900457;29;20563;-73
2023/06/25 00:34:58;;;;;;;0.03;0.03;;;;;;;16.34;73.35;98101.22;4899702;29;20079;-73
2023/06/25 00:37:26;;;;;;;0.13;0.13;;;;;;;16.32;73.27;98097.91;4902571;29;20040;-74
2023/06/25 00:39:53;;;;;;;0.10;0.10;;;;;;;16.17;73.94;98099.28;4907998;29;20058;-73
2023/06/25 00:42:21;;;;;;;0.10;0.10;;;;;;;16.08;74.22;98096.03;4898871;29;20055;-73
2023/06/25 00:44:51;;;;;;;0.10;0.10;;;;;;;16.03;74.28;98093.16;4907110;29;20062;-73
2023/06/25 00:47:22;;;;;;;0.13;0.13;;;;;;;16.10;73.76;98096.63;4911397;29;20040;-73
2023/06/25 00:49:51;;;;;;;0.03;0.03;;;;;;;16.35;72.84;98096.66;4910864;29;20111;-73
2023/06/25 00:52:20;;;;;;;0.20;0.20;;;;;;;16.23;73.03;98090.34;4887246;29;20131;-73
2023/06/25 00:54:47;;;;;;;0.00;0.00;;;;;;;16.18;73.27;98095.56;4900339;29;20044;-73
2023/06/25 00:57:15;;;;;;;0.15;0.15;;;;;;;16.13;73.14;98098.91;4899419;29;20050;-73
2023/06/25 00:59:44;;;;;;;0.10;0.10;;;;;;;16.08;73.02;98087.97;4896070;29;20436;-73
2023/06/25 01:02:17;;;;;;;0.13;0.13;;;;;;;15.99;73.16;98097.31;4907187;29;20050;-73
2023/06/25 01:05:00;;;;;;;;;;;;;;;15.97;73.18;98088.66;4920282;29;20499;-73
2023/06/25 01:07:29;;;;;;;0.17;0.17;;;;;;;16.00;73.23;98090.88;4898441;29;19931;-74
2023/06/25 01:09:57;;;;;;;0.03;0.03;;;;;;;16.05;73.19;98088.38;4912743;29;20282;-73
2023/06/25 01:12:24;;;;;;;0.25;0.25;;;;;;;16.10;73.08;98088.53;4896367;29;20044;-73
2023/06/25 01:14:52;;;;;;;0.00;0.00;;;;;;;15.99;73.66;98084.69;4894091;29;20079;-73
2023/06/25 01:17:20;;;;;;;0.30;0.30;;;;;;;16.04;73.18;98081.34;4908799;29;20115;-73
2023/06/25 01:19:47;;;;;;;0.10;0.10;;;;;;;15.94;73.85;98086.38;4897800;29;20083;-73
2023/06/25 01:22:17;;;;;;;0.10;0.10;;;;;;;15.92;73.69;98077.69;4912042;29;20389;-73
2023/06/25 01:24:49;;;;;;;0.10;0.10;;;;;;;16.03;73.22;98074.31;4892691;29;20436;-74
2023/06/25 01:27:17;;;;;;;0.20;0.20;;;;;;;16.07;73.01;98075.53;4909587;29;20063;-73
2023/06/25 01:29:44;;;;;;;0.10;0.10;;;;;;;16.09;73.14;98076.94;4917765;29;20054;-74
2023/06/25 01:32:12;;;;;;;0.03;0.03;;;;;;;16.05;73.27;98069.53;4904981;29;20041;-73
2023/06/25 01:34:40;;;;;;;0.10;0.10;;;;;;;15.89;73.98;98072.72;4904653;29;20263;-73
2023/06/25 01:37:07;;;;;;;0.13;0.13;;;;;;;15.98;73.62;98071.47;4902425;29;20045;-73
2023/06/25 01:39:35;;;;;;;0.13;0.13;;;;;;;15.83;74.35;98068.22;4905793;29;20074;-74
2023/06/25 01:42:05;;;;;;;0.15;0.15;;;;;;;15.90;73.90;98064.44;4897489;29;20601;-73
2023/06/25 01:44:33;;;;;;;0.10;0.10;;;;;;;15.87;73.67;98067.59;4909337;29;20414;-73
2023/06/25 01:47:00;;;;;;;0.10;0.10;;;;;;;15.77;73.75;98068.06;4912121;29;20040;-73
2023/06/25 01:49:28;;;;;;;0.13;0.13;;;;;;;15.79;73.91;98060.56;4920900;29;20059;-73
2023/06/25 01:51:59;;;;;;;0.13;0.13;;;;;;;15.71;74.08;98062.69;4890600;29;20060;-73
2023/06/25 01:54:27;;;;;;;0.15;0.15;;;;;;;15.61;74.54;98055.09;4925050;29;20048;-73
2023/06/25 01:56:54;;;;;;;0.10;0.10;;;;;;;15.66;74.12;98051.78;4902435;29;20054;-73
2023/06/25 01:59:23;;;;;;;0.10;0.10;;;;;;;15.68;73.80;98053.19;4914605;29;20071;-74
2023/06/25 02:01:51;;;;;;;0.00;0.00;;;;;;;15.51;74.66;98051.19;4921351;29;20090;-73
2023/06/25 02:04:19;;;;;;;0.22;0.22;;;;;;;15.72;73.54;98042.81;4904854;29;20040;-73
2023/06/25 02:06:47;;;;;;;0.17;0.17;;;;;;;15.67;73.78;98045.34;4901231;29;20116;-74
2023/06/25 02:09:15;;;;;;;0.10;0.10;;;;;;;15.55;74.50;98044.38;4893677;29;20053;-73
2023/06/25 02:11:42;;;;;;;0.17;0.17;;;;;;;15.53;74.45;98035.66;4909605;29;20040;-73
2023/06/25 02:14:10;;;;;;;0.22;0.22;;;;;;;15.55;74.29;98036.31;4910102;29;20043;-74
2023/06/25 02:16:39;;;;;;;0.10;0.10;;;;;;;15.54;74.22;98030.09;4898714;29;20041;-74
2023/06/25 02:19:07;;;;;;;0.13;0.13;;;;;;;15.55;74.23;98037.13;4902584;29;20152;-74
2023/06/25 02:21:34;;;;;;;0.22;0.22;;;;;;;15.69;73.36;98038.69;4909886;29;20044;-74
2023/06/25 02:24:02;;;;;;;0.20;0.20;;;;;;;15.62;73.55;98047.84;4909480;29;20083;-73
2023/06/25 02:26:29;;;;;;;0.30;0.30;;;;;;;15.49;73.84;98043.31;4903860;29;20433;-74
2023/06/25 02:28:57;;;;;;;0.13;0.13;;;;;;;15.37;74.62;98039.66;4891488;29;20147;-73
2023/06/25 02:31:25;;;;;;;0.20;0.20;;;;;;;15.26;74.97;98040.34;4914617;29;20048;-73
2023/06/25 02:33:54;;;;;;;0.13;0.13;;;;;;;15.25;75.13;98038.69;4907674;29;20107;-73
2023/06/25 02:36:21;;;;;;;0.13;0.13;;;;;;;15.25;75.16;98033.31;4912911;29;20576;-73
2023/06/25 02:38:49;;;;;;;0.10;0.10;;;;;;;15.16;75.19;98031.91;4900226;29;20056;-73
2023/06/25 02:41:16;;;;;;;0.20;0.20;;;;;;;15.10;75.37;98030.06;4900046;29;20063;-73
2023/06/25 02:43:44;;;;;;;0.13;0.13;;;;;;;15.05;75.38;98025.31;4903280;29;20049;-74
2023/06/25 02:46:12;;;;;;;0.20;0.20;;;;;;;14.99;75.59;98032.38;4897839;29;20176;-74
2023/06/25 02:48:42;;;;;;;0.20;0.20;;;;;;;14.93;75.65;98035.91;4903111;29;20050;-74
2023/06/25 02:51:14;;;;;;;0.20;0.20;;;;;;;15.04;75.29;98032.56;4918588;29;20505;-74
2023/06/25 02:53:41;;;;;;;0.13;0.13;;;;;;;15.07;75.03;98034.81;4913202;29;20044;-73
2023/06/25 02:56:09;;;;;;;0.13;0.13;;;;;;;15.13;74.56;98032.31;4896817;29;20048;-74
2023/06/25 02:58:37;;;;;;;0.13;0.13;;;;;;;15.06;74.62;98029.63;4905107;29;20142;-73
2023/06/25 03:01:04;;;;;;;0.13;0.13;;;;;;;15.02;75.06;98031.94;4900021;29;20052;-74
2023/06/25 03:03:32;;;;;;;0.10;0.10;;;;;;;14.85;75.71;98032.59;4909318;29;20044;-74
2023/06/25 03:06:00;;;;;;;0.10;0.10;;;;;;;14.83;75.82;98029.31;4908669;29;20047;-73
2023/06/25 03:08:30;;;;;;;0.13;0.13;;;;;;;14.84;75.62;98034.50;4905420;29;20136;-74
2023/06/25 03:10:58;;;;;;;0.20;0.20;;;;;;;14.78;76.04;98023.75;4919509;29;20504;-73
2023/06/25 03:13:26;;;;;;;0.10;0.10;;;;;;;14.91;75.38;98034.47;4902516;29;20041;-73
2023/06/25 03:15:54;;;;;;;0.03;0.03;;;;;;;14.94;75.21;98026.00;4905924;29;20051;-74
2023/06/25 03:18:21;;;;;;;0.20;0.20;;;;;;;14.89;75.33;98025.78;4903967;29;20520;-73
2023/06/25 03:20:49;;;;;;;0.13;0.13;;;;;;;14.82;75.34;98023.13;4912630;29;20092;-74
2023/06/25 03:23:17;;;;;;;0.20;0.20;;;;;;;14.72;75.73;98020.03;4902947;29;20048;-74
2023/06/25 03:25:48;;;;;;;0.13;0.13;;;;;;;14.70;75.78;98016.75;4892827;29;20432;-73
2023/06/25 03:28:25;;;;;;;0.20;0.20;;;;;;;14.68;75.76;98021.50;4907881;29;20489;-74
2023/06/25 03:30:53;;;;;;;0.13;0.13;;;;;;;14.63;76.01;98018.63;4894516;29;20049;-73
2023/06/25 03:33:21;;;;;;;0.15;0.15;;;;;;;14.63;75.80;98021.31;4907996;29;20036;-73
2023/06/25 03:35:50;;;;;;;0.13;0.13;;;;;;;14.67;75.60;98017.16;4895967;29;20041;-74
2023/06/25 03:38:17;;;;;;;0.20;0.20;;;;;;;14.69;75.81;98023.97;4910134;29;20048;-73
2023/06/25 03:40:45;;;;;;;0.13;0.13;;;;;;;14.63;75.40;98015.94;4909103;29;20048;-74
2023/06/25 03:43:14;;;;;;;0.13;0.13;;;;;;;14.63;75.41;98019.44;4898779;29;20059;-73
2023/06/25 03:45:42;;;;;;;0.22;0.22;;;;;;;14.65;75.50;98025.41;4921276;29;20445;-74
2023/06/25 03:48:09;;;;;;;0.15;0.15;;;;;;;14.64;75.54;98020.25;4920232;29;20139;-74
2023/06/25 03:50:37;;;;;;;0.30;0.30;;;;;;;14.59;75.57;98014.69;4907893;29;20048;-73
2023/06/25 03:53:05;;;;;;;0.08;0.08;;;;;;;14.55;75.79;98016.97;4904703;29;20058;-74
2023/06/25 03:55:35;;;;;;;0.25;0.25;;;;;;;14.61;75.74;98018.00;4896008;29;20041;-73
2023/06/25 03:58:03;;;;;;;0.13;0.13;;;;;;;14.33;76.77;98016.34;4910483;29;20052;-73
2023/06/25 04:00:32;;;;;;;0.10;0.10;;;;;;;14.28;77.08;98010.78;4908539;29;20135;-74
2023/06/25 04:02:59;;;;;;;0.03;0.03;;;;;;;14.38;76.78;98015.72;4906861;29;20455;-73
2023/06/25 04:05:27;;;;;;;0.10;0.10;;;;;;;14.14;78.13;98000.25;4905464;29;20125;-74
2023/06/25 04:07:54;;;;;;;0.20;0.20;;;;;;;14.30;77.17;98000.66;4899834;29;20044;-74
2023/06/25 04:10:22;;;;;;;0.15;0.15;;;;;;;14.46;76.79;98004.78;4883894;29;20056;-73
2023/06/25 04:12:50;;;;;;;0.20;0.20;;;;;;;14.29;77.29;98000.88;4892721;29;20048;-74
2023/06/25 04:15:19;;;;;;;0.20;0.20;;;;;;;14.46;76.50;98001.28;4902322;29;20076;-76
2023/06/25 04:17:48;;;;;;;0.10;0.10;;;;;;;14.50;76.49;97997.97;4921679;29;20452;-74
2023/06/25 04:20:16;;;;;;;0.03;0.03;;;;;;;14.61;75.99;97996.50;4923359;29;20049;-76
2023/06/25 04:22:44;;;;;;;0.20;0.20;;;;;;;14.55;75.95;98005.38;4901336;29;20039;-73
2023/06/25 04:25:11;;;;;;;0.20;0.20;;;;;;;14.54;76.13;97991.13;4919507;29;20156;-73
2023/06/25 04:27:39;;;;;;;0.22;0.22;;;;;;;14.58;75.88;98000.44;4917286;29;20051;-73
2023/06/25 04:30:08;;;;;;;0.03;0.03;;;;;;;14.74;75.63;98001.84;4902003;29;20103;-73
2023/06/25 04:32:36;;;;;;;0.13;0.13;;;;;;;14.75;75.37;97998.09;4917258;29;20051;-74
2023/06/25 04:35:06;;;;;;;0.10;0.10;;;;;;;14.79;75.27;97995.84;4913356;29;20036;-73
2023/06/25 04:37:35;;;;;;;0.20;0.20;;;;;;;14.82;75.34;97996.25;4901127;29;20051;-74
2023/06/25 04:40:05;;;;;;;0.17;0.17;;;;;;;14.86;74.93;97989.38;4918853;29;20393;-73
2023/06/25 04:42:33;;;;;;;0.00;0.00;;;;;;;14.94;74.71;97991.03;4896378;29;20527;-74
2023/06/25 04:45:00;;;;;;;0.03;0.03;;;;;;;14.89;75.02;97983.59;4905466;29;20055;-74
2023/06/25 04:47:28;;;;;;;0.20;0.20;;;;;;;14.98;74.98;97984.19;4892994;29;20050;-73
2023/06/25 04:49:56;;;;;;;0.03;0.03;;;;;;;14.92;75.16;97988.56;4906067;29;20044;-73
2023/06/25 04:52:25;;;;;;;0.13;0.13;;;;;;;14.84;75.64;97985.28;4897175;29;20126;-73
2023/06/25 04:54:52;;;;;;;0.13;0.13;;;;;;;14.71;76.42;97982.63;4891508;29;20059;-76
2023/06/25 04:57:20;;;;;;;0.13;0.13;;;;;;;14.88;76.06;97981.94;4896886;29;20044;-73
2023/06/25 04:59:48;;;;;;;0.20;0.20;;;;;;;15.11;75.17;97984.13;4895983;29;20045;-74
2023/06/25 05:02:16;;;;;;;0.20;0.20;;;;;;;15.21;74.88;97986.38;4910257;29;20048;-74
2023/06/25 05:04:43;;;;;;;0.22;0.22;;;;;;;15.37;74.26;97986.69;4902967;29;20060;-74
2023/06/25 05:07:13;;;;;;;0.10;0.10;;;;;;;15.42;74.31;97986.88;4901056;29;20051;-74
2023/06/25 05:09:42;;;;;;;0.10;0.10;;;;;;;15.61;73.78;97997.75;4905987;29;20039;-73
2023/06/25 05:12:10;;;;;;;0.22;0.22;;;;;;;15.77;73.13;97991.88;4900616;29;20057;-73
2023/06/25 05:14:38;;;;;;;0.05;0.05;;;;;;;15.82;72.59;97988.50;4905824;29;20040;-74
2023/06/25 05:17:06;;;;;;;0.10;0.10;;;;;;;15.89;72.77;97987.41;4898746;29;20452;-73
2023/06/25 05:19:33;;;;;;;0.10;0.10;;;;;;;15.87;72.52;97994.91;4913238;29;20050;-74
2023/06/25 05:22:01;;;;;;;0.15;0.15;;;;;;;16.01;72.14;97991.03;4895611;29;20049;-74
2023/06/25 05:24:28;;;;;;;0.13;0.13;;;;;;;15.98;72.21;97998.75;4897399;29;20048;-74
2023/06/25 05:26:59;;;;;;;0.03;0.03;;;;;;;16.03;72.35;97993.53;4898598;29;20049;-74
2023/06/25 05:29:26;;;;;;;0.10;0.10;;;;;;;16.12;72.25;97994.91;4894036;29;20044;-74
2023/06/25 05:31:55;;;;;;;0.10;0.10;;;;;;;16.23;71.93;97993.34;4901744;29;20120;-73
2023/06/25 05:34:23;;;;;;;0.20;0.20;;;;;;;16.23;72.01;97985.28;4887486;29;20099;-74
2023/06/25 05:36:50;;;;;;;0.03;0.03;;;;;;;16.34;71.94;97993.47;4901537;29;20051;-73
2023/06/25 05:39:18;;;;;;;0.20;0.20;;;;;;;16.46;71.67;97988.19;4903039;29;20386;-73
2023/06/25 05:41:45;;;;;;;0.10;0.10;;;;;;;16.37;71.94;97981.44;4898013;29;20060;-73
2023/06/25 05:44:14;;;;;;;0.10;0.10;;;;;;;16.40;71.93;97983.69;4900260;29;20059;-73
2023/06/25 05:46:42;;;;;;;0.00;0.00;;;;;;;16.57;71.54;97990.13;4898052;29;20040;-73
2023/06/25 05:49:11;;;;;;;0.20;0.20;;;;;;;16.73;71.21;97986.06;4902200;29;20140;-76
2023/06/25 05:51:39;;;;;;;0.10;0.10;;;;;;;16.84;70.95;97985.31;4906114;29;20228;-75
2023/06/25 05:54:06;;;;;;;0.15;0.15;;;;;;;16.98;70.15;97989.50;4911736;29;20063;-73
2023/06/25 05:56:34;;;;;;;0.13;0.13;;;;;;;16.87;70.55;97984.88;4892978;29;20044;-76
2023/06/25 05:59:01;;;;;;;0.20;0.20;;;;;;;16.95;70.50;97981.84;4904049;29;20047;-75
2023/06/25 06:01:30;;;;;;;0.20;0.20;;;;;;;17.05;70.43;97975.94;4903779;29;20416;-73
2023/06/25 06:03:58;;;;;;;0.10;0.10;;;;;;;17.18;70.07;97976.59;4915121;29;20478;-76
2023/06/25 06:06:25;;;;;;;0.00;0.00;;;;;;;17.36;69.36;97977.59;4903979;29;20048;-74
2023/06/25 06:08:53;;;;;;;0.13;0.13;;;;;;;17.46;69.22;97977.88;4906825;29;20040;-75
2023/06/25 06:11:22;;;;;;;0.13;0.13;;;;;;;17.53;69.05;97986.72;4904265;29;20131;-75
2023/06/25 06:13:50;;;;;;;0.15;0.15;;;;;;;17.66;69.14;97983.84;4906283;29;20518;-75
2023/06/25 06:16:17;;;;;;;0.03;0.03;;;;;;;17.71;68.35;97984.00;4893514;29;20056;-74
2023/06/25 06:18:46;;;;;;;0.10;0.10;;;;;;;17.74;68.60;97986.25;4906782;29;20071;-75
2023/06/25 06:21:14;;;;;;;0.03;0.03;;;;;;;17.81;68.09;97984.25;4905840;29;20055;-75
2023/06/25 06:23:41;;;;;;;0.00;0.00;;;;;;;17.87;68.14;97988.72;4893613;29;20052;-75
2023/06/25 06:26:09;;;;;;;0.10;0.10;;;;;;;18.02;67.74;97987.47;4911287;29;20044;-75
2023/06/25 06:28:36;;;;;;;0.13;0.13;;;;;;;18.15;66.74;97979.97;4903892;29;20036;-75
2023/06/25 06:31:04;;;;;;;0.22;0.22;;;;;;;18.33;66.31;97979.03;4911302;29;20087;-75
2023/06/25 06:33:32;;;;;;;0.10;0.10;;;;;;;18.39;66.60;97983.50;4902503;29;20063;-75
2023/06/25 06:36:02;;;;;;;0.15;0.15;;;;;;;18.53;65.77;97987.63;4912429;29;20052;-75
2023/06/25 06:38:30;;;;;;;0.10;0.10;;;;;;;18.65;66.04;97985.78;4908751;29;20451;-75
2023/06/25 06:40:58;;;;;;;0.13;0.13;;;;;;;18.77;66.65;97984.94;4895783;29;20097;-75
2023/06/25 06:43:25;;;;;;;0.13;0.13;;;;;;;18.94;65.66;97983.97;4909280;29;20131;-73
2023/06/25 06:45:53;;;;;;;0.20;0.20;;;;;;;19.05;64.33;97976.88;4897080;29;20581;-75
2023/06/25 06:48:20;;;;;;;0.22;0.13;;;;;;;19.17;64.08;97983.09;4907267;29;20505;-75
2023/06/25 06:50:48;;;;;;;0.20;0.20;;;;;;;19.25;62.79;97981.88;4882695;29;20477;-75
2023/06/25 06:53:17;;;;;;;0.10;0.10;;;;;;;19.39;62.95;97977.84;4894602;29;20053;-73
2023/06/25 06:55:45;;;;;;;0.00;0.00;;;;;;;19.44;62.58;97972.50;4901121;29;20044;-73
2023/06/25 06:58:12;;;;;;;0.10;0.10;;;;;;;19.65;62.20;97979.97;4900788;29;20060;-75
2023/06/25 07:00:40;;;;;;;0.20;0.20;;;;;;;19.87;60.95;97980.09;4903546;29;20047;-76
2023/06/25 07:03:07;;;;;;;0.05;0.05;;;;;;;19.99;61.10;97980.03;4906293;29;20059;-75
2023/06/25 07:05:35;;;;;;;0.10;0.10;;;;;;;20.14;60.88;97975.66;4908879;29;20059;-75
2023/06/25 07:08:04;;;;;;;0.10;0.10;;;;;;;20.22;60.91;97976.34;4896753;29;20068;-75
2023/06/25 07:10:33;;;;;;;0.03;0.03;;;;;;;20.17;60.13;97975.19;4907666;29;20055;-76
2023/06/25 07:13:00;;;;;;;0.10;0.10;;;;;;;20.32;59.80;97979.22;4906301;29;20052;-73
2023/06/25 07:15:28;;;;;;;0.03;0.03;;;;;;;20.47;58.76;97965.91;4913104;29;20386;-73
2023/06/25 07:17:55;;;;;;;0.20;0.20;;;;;;;20.75;58.00;97962.25;4903444;29;20036;-73
2023/06/25 07:20:23;;;;;;;0.10;0.10;;;;;;;20.98;56.81;97966.59;4895408;29;20040;-73
2023/06/25 07:22:50;;;;;;;0.10;0.10;;;;;;;21.29;55.54;97968.66;4898774;29;20049;-73
2023/06/25 07:25:18;;;;;;;0.10;0.10;;;;;;;21.55;54.62;97970.59;4893039;29;20048;-73
2023/06/25 07:27:47;;;;;;;0.03;0.03;;;;;;;21.71;53.01;97959.84;4906076;29;20051;-73
2023/06/25 07:30:15;;;;;;;0.10;0.10;;;;;;;21.78;52.74;97972.19;4899706;29;20116;-73
2023/06/25 07:32:42;;;;;;;0.10;0.10;;;;;;;21.91;53.52;97973.63;4912110;29;20044;-73
2023/06/25 07:35:10;;;;;;;0.03;0.03;;;;;;;22.00;51.96;97969.44;4904959;29;20443;-73
2023/06/25 07:37:37;;;;;;;0.10;0.10;;;;;;;22.12;49.34;97969.22;4895118;29;20040;-73
2023/06/25 07:40:07;;;;;;;0.20;0.20;;;;;;;22.38;48.93;97971.09;4911868;29;20039;-73
2023/06/25 07:42:34;;;;;;;0.10;0.10;;;;;;;22.57;48.02;97969.59;4898628;29;20433;-73
2023/06/25 07:45:04;;;;;;;0.10;0.10;;;;;;;22.54;48.29;97972.81;4906309;29;20116;-73
2023/06/25 07:47:32;;;;;;;0.00;0.00;;;;;;;22.58;48.81;97967.69;4901696;29;20051;-73
2023/06/25 07:49:59;;;;;;;0.00;0.00;;;;;;;22.70;49.73;97968.31;4903606;29;20128;-73
2023/06/25 07:52:27;;;;;;;0.10;0.10;;;;;;;22.72;48.44;97965.31;4915059;29;20048;-74
2023/06/25 07:54:54;;;;;;;0.03;0.03;;;;;;;22.46;49.72;97961.59;4905861;29;20047;-73
2023/06/25 07:57:22;;;;;;;0.10;0.10;;;;;;;22.45;48.89;97968.13;4902341;29;20040;-74
2023/06/25 07:59:50;;;;;;;0.10;0.10;;;;;;;22.62;49.03;97972.34;4902973;29;20497;-74
2023/06/25 08:02:22;;;;;;;0.10;0.10;;;;;;;22.96;48.43;97964.66;4912433;29;20048;-74
2023/06/25 08:04:49;;;;;;;0.10;0.10;;;;;;;23.10;48.58;97965.00;4908745;29;20048;-74
2023/06/25 08:07:17;;;;;;;0.03;0.03;;;;;;;23.40;47.49;97961.56;4901415;29;20572;-74
2023/06/25 08:09:46;;;;;;;0.10;0.10;;;;;;;23.68;47.20;97963.84;4904602;29;20115;-74
2023/06/25 08:12:14;;;;;;;0.08;0.08;;;;;;;23.91;46.63;97967.97;4915690;29;20415;-74
2023/06/25 08:14:42;;;;;;;0.00;0.00;;;;;;;23.97;44.92;97960.63;4911312;29;20448;-73
2023/06/25 08:17:10;;;;;;;0.03;0.03;;;;;;;24.15;45.71;97957.34;4910309;29;20062;-74
2023/06/25 08:19:39;;;;;;;0.00;0.00;;;;;;;24.39;44.25;97958.47;4913585;29;20408;-74
2023/06/25 08:22:06;;;;;;;0.10;0.10;;;;;;;24.57;41.60;97954.34;4910732;29;20056;-73
2023/06/25 08:24:34;;;;;;;0.10;0.10;;;;;;;24.61;42.35;97949.13;4910917;29;20079;-73
2023/06/25 08:27:02;;;;;;;0.10;0.10;;;;;;;24.66;41.68;97955.41;4885361;29;20045;-74
2023/06/25 08:29:32;;;;;;;0.03;0.03;;;;;;;24.73;42.06;97963.31;4891872;29;20044;-74
2023/06/25 08:32:00;;;;;;;0.00;0.00;;;;;;;24.73;42.02;97961.38;4899619;29;20489;-74
2023/06/25 08:34:28;;;;;;;0.00;0.00;;;;;;;24.67;40.59;97954.31;4907601;29;20092;-74
2023/06/25 08:36:57;;;;;;;0.00;0.00;;;;;;;24.93;41.22;97952.34;4903402;29;20052;-75
2023/06/25 08:39:25;;;;;;;0.05;0.05;;;;;;;25.35;40.89;97953.81;4900332;29;20054;-74
2023/06/25 08:41:54;;;;;;;0.10;0.10;;;;;;;25.32;40.53;97951.66;4914801;29;20067;-74
2023/06/25 08:44:21;;;;;;;0.10;0.10;;;;;;;25.35;40.54;97954.63;4915275;29;20040;-74
2023/06/25 08:46:50;;;;;;;0.10;0.10;;;;;;;25.39;40.26;97952.16;4910839;29;20492;-74
2023/06/25 08:49:22;;;;;;;0.10;0.10;;;;;;;25.62;40.96;97947.97;4901400;29;20070;-74
2023/06/25 08:51:52;;;;;;;0.00;0.00;;;;;;;25.67;40.22;97940.53;4904475;29;20049;-74
2023/06/25 08:54:21;;;;;;;0.08;0.08;;;;;;;25.89;39.65;97937.38;4903270;29;20373;-74
2023/06/25 08:56:49;;;;;;;0.08;0.08;;;;;;;26.03;40.00;97932.09;4897397;29;20051;-74
2023/06/25 08:59:17;;;;;;;0.00;0.00;;;;;;;25.75;40.78;97931.72;4910151;29;20056;-74
2023/06/25 09:01:45;;;;;;;0.00;0.00;;;;;;;26.08;39.82;97934.78;4895379;29;20489;-74
2023/06/25 09:04:12;;;;;;;0.03;0.03;;;;;;;26.40;39.82;97926.84;4895827;29;20120;-74
2023/06/25 09:06:40;;;;;;;0.08;0.08;;;;;;;26.47;38.90;97923.78;4890287;29;20493;-74
2023/06/25 09:09:29;;;;;;;0.00;0.00;;;;;;;26.41;39.58;97925.75;4897728;29;20500;-74
2023/06/25 09:11:56;;;;;;;0.00;0.00;;;;;;;26.72;39.10;97918.03;4910635;29;20535;-73
2023/06/25 09:14:24;;;;;;;0.00;0.00;;;;;;;26.92;38.66;97919.75;4899519;29;20072;-73
2023/06/25 09:16:54;;;;;;;0.00;0.00;;;;;;;27.13;38.00;97915.66;4891382;29;20045;-74
2023/06/25 09:19:22;;;;;;;0.00;0.00;;;;;;;26.86;38.60;97923.63;4914996;29;20044;-74
2023/06/25 09:21:50;;;;;;;0.03;0.03;;;;;;;26.43;38.48;97918.06;4906196;29;20040;-74
2023/06/25 09:24:20;;;;;;;0.00;0.00;;;;;;;26.57;38.98;97912.72;4908729;29;20416;-74
2023/06/25 09:26:50;;;;;;;0.00;0.00;;;;;;;26.94;38.67;97921.09;4913971;29;20441;-76
2023/06/25 09:29:20;;;;;;;0.00;0.00;;;;;;;26.42;39.08;97907.41;4917364;29;20051;-74
2023/06/25 09:31:49;;;;;;;0.00;0.00;;;;;;;26.78;38.27;97910.59;4904080;29;20115;-75
2023/06/25 09:34:18;;;;;;;0.00;0.00;;;;;;;27.03;38.21;97908.38;4905109;29;20053;-74
2023/06/25 09:36:46;;;;;;;0.00;0.00;;;;;;;27.15;38.10;97904.41;4897391;29;20044;-75
2023/06/25 09:39:13;;;;;;;0.03;0.03;;;;;;;27.45;37.88;97905.91;4903470;29;20049;-74
2023/06/25 09:41:42;;;;;;;0.05;0.00;;;;;;;27.66;37.11;97908.09;4905711;29;20568;-76
2023/06/25 09:44:11;;;;;;;0.00;0.00;;;;;;;27.84;36.36;97905.59;4893854;29;20060;-75
2023/06/25 09:46:41;;;;;;;0.00;0.00;;;;;;;27.66;36.65;97902.59;4919150;29;20051;-74
2023/06/25 09:49:09;;;;;;;0.00;0.00;;;;;;;27.92;36.23;97903.03;4916060;29;20064;-74
2023/06/25 09:51:41;;;;;;;0.00;0.00;;;;;;;28.07;35.77;97899.19;4914626;29;20040;-74
2023/06/25 09:54:10;;;;;;;0.00;0.00;;;;;;;28.04;35.81;97900.59;4918393;29;20051;-74
2023/06/25 09:56:39;;;;;;;0.10;0.10;;;;;;;27.65;36.75;97900.16;4911870;29;20127;-74
2023/06/25 09:59:06;;;;;;;0.00;0.00;;;;;;;27.73;36.43;97899.47;4906698;29;20065;-75
2023/06/25 10:01:36;;;;;;;0.03;0.03;;;;;;;27.26;37.62;97887.53;4900041;29;20381;-74
2023/06/25 10:04:04;;;;;;;0.00;0.00;;;;;;;27.68;36.94;97891.34;4896866;29;20051;-74
2023/06/25 10:06:32;;;;;;;0.00;0.00;;;;;;;28.24;36.31;97885.75;4900396;29;20108;-74
2023/06/25 10:09:02;;;;;;;0.00;0.00;;;;;;;28.75;35.36;97885.63;4910780;29;20059;-74
2023/06/25 10:11:30;;;;;;;0.00;0.00;;;;;;;28.81;34.96;97878.94;4902504;29;20045;-74
2023/06/25 10:13:59;;;;;;;0.00;0.00;;;;;;;28.87;35.05;97867.81;4899839;29;20045;-74
2023/06/25 10:16:32;;;;;;;0.00;0.00;;;;;;;28.95;34.70;97875.34;4899900;29;20535;-74
2023/06/25 10:19:08;;;;;;;0.00;0.00;;;;;;;28.96;34.36;97877.00;4912654;29;20040;-74
2023/06/25 10:21:35;;;;;;;0.03;0.03;;;;;;;28.89;34.71;97880.13;4908015;29;20481;-74
2023/06/25 10:24:04;;;;;;;0.00;0.00;;;;;;;28.91;34.80;97872.41;4912794;29;20048;-74
2023/06/25 10:26:34;;;;;;;0.00;0.00;;;;;;;28.89;34.17;97876.56;4910966;29;20441;-74
2023/06/25 10:29:06;;;;;;;0.00;0.00;;;;;;;28.57;34.84;97875.53;4902577;29;20083;-73
2023/06/25 10:31:38;;;;;;;0.00;0.00;;;;;;;28.02;35.72;97867.16;4907276;29;20416;-74
2023/06/25 10:34:08;;;;;;;0.00;0.00;;;;;;;27.84;35.88;97876.25;4913216;29;20111;-76
2023/06/25 10:36:35;;;;;;;0.10;0.10;;;;;;;27.86;35.55;97871.28;4891794;29;20505;-74
2023/06/25 10:39:04;;;;;;;0.03;0.03;;;;;;;27.25;36.68;97872.19;4902581;29;20060;-74
2023/06/25 10:41:32;;;;;;;0.10;0.03;;;;;;;27.17;36.93;97869.28;4904129;29;20488;-73
2023/06/25 10:44:00;;;;;;;0.00;0.00;;;;;;;26.83;37.51;97867.50;4906559;29;20049;-74
2023/06/25 10:46:29;;;;;;;0.00;0.00;;;;;;;27.47;36.72;97868.03;4901243;29;20063;-74
2023/06/25 10:49:01;;;;;;;0.10;0.10;;;;;;;28.14;35.70;97867.47;4904167;29;20056;-75
2023/06/25 10:51:30;;;;;;;0.10;0.00;;;;;;;28.68;34.12;97863.22;4903701;29;20085;-76
2023/06/25 10:53:58;;;;;;;0.00;0.00;;;;;;;28.85;33.87;97859.91;4893330;29;20044;-74
2023/06/25 10:56:25;;;;;;;0.00;0.00;;;;;;;28.91;33.84;97860.59;4899607;29;20056;-74
2023/06/25 10:58:56;;;;;;;0.00;0.00;;;;;;;28.86;33.98;97846.97;4906780;29;20420;-74
2023/06/25 11:01:25;;;;;;;0.00;0.00;;;;;;;29.07;33.15;97851.69;4909266;29;20134;-74
2023/06/25 11:03:53;;;;;;;0.00;0.00;;;;;;;29.09;33.55;97843.97;4906192;29;20502;-74
2023/06/25 11:06:21;;;;;;;0.00;0.00;;;;;;;29.02;32.83;97843.56;4907611;29;20445;-74
2023/06/25 11:08:50;;;;;;;0.00;0.00;;;;;;;29.28;33.24;97845.78;4907962;29;20492;-74
2023/06/25 11:11:20;;;;;;;0.10;0.10;;;;;;;29.49;32.95;97838.69;4902425;29;20052;-74
2023/06/25 11:13:49;;;;;;;0.00;0.00;;;;;;;29.59;31.74;97841.19;4917360;29;20055;-74
2023/06/25 11:16:17;;;;;;;0.00;0.00;;;;;;;29.42;32.96;97830.06;4903798;29;20091;-74
2023/06/25 11:18:46;;;;;;;0.00;0.00;;;;;;;29.72;32.52;97840.31;4893055;29;20059;-74
2023/06/25 11:21:14;;;;;;;0.00;0.00;;;;;;;29.69;32.09;97820.88;4900691;29;20059;-74
2023/06/25 11:23:43;;;;;;;0.03;0.03;;;;;;;29.95;32.19;97821.91;4901383;29;20071;-74
2023/06/25 11:26:15;;;;;;;0.00;0.00;;;;;;;29.67;31.80;97828.66;4915803;29;20390;-74
2023/06/25 11:28:42;;;;;;;0.00;0.00;;;;;;;30.01;31.70;97817.88;4916217;29;20040;-75
2023/06/25 11:31:10;;;;;;;0.00;0.00;;;;;;;30.21;31.42;97820.06;4903690;29;20116;-74
2023/06/25 11:33:38;;;;;;;0.00;0.00;;;;;;;30.04;31.29;97819.19;4905064;29;20072;-74
2023/06/25 11:36:07;;;;;;;0.00;0.00;;;;;;;30.05;31.17;97815.31;4891448;29;20422;-77
2023/06/25 11:38:34;;;;;;;0.00;0.00;;;;;;;30.08;31.02;97812.75;4902685;29;20127;-74